Terminal Aerodrome Forecast
Issued by NWS Shreveport, LA

Home | Current Version | Previous Version | Text Only | Print | Product List | Glossary On
Versions: 1 2 3 4 5 6 7 8 9 10 11 12 13 14 15 16 17
571
FTUS44 KSHV 231153
TAFTXK
TAF
KTXK 231153Z 2312/2412 34008KT P6SM SCT030 OVC045
      TEMPO 2312/2314 BKN025 BKN045
     FM231500 36008G15KT P6SM SCT050 SCT100
     FM240000 35005KT P6SM SKC
     FM240600 00000KT P6SM SKC=

USA.gov is the U.S. government's official web portal to all federal, state and local government web resources and services.